sensor_id;sensor_type;location;lat;lon;timestamp;pressure;altitude;pressure_sealevel;temperature;humidity
55271;BME280;41132;47.162;9.470;2023-07-13T00:00:41;96582.28;;;18.40;100.00
55271;BME280;41132;47.162;9.470;2023-07-13T00:03:07;96595.75;;;18.38;100.00
55271;BME280;41132;47.162;9.470;2023-07-13T00:05:32;96583.47;;;18.37;100.00
55271;BME280;41132;47.162;9.470;2023-07-13T00:07:58;96606.19;;;18.53;100.00
55271;BME280;41132;47.162;9.470;2023-07-13T00:18:09;96607.41;;;18.50;100.00
55271;BME280;41132;47.162;9.470;2023-07-13T00:20:34;96622.75;;;18.55;100.00
55271;BME280;41132;47.162;9.470;2023-07-13T00:23:00;96628.28;;;18.53;100.00
55271;BME280;41132;47.162;9.470;2023-07-13T00:25:25;96634.84;;;18.51;100.00
55271;BME280;41132;47.162;9.470;2023-07-13T00:27:53;96626.25;;;18.55;100.00
55271;BME280;41132;47.162;9.470;2023-07-13T00:30:19;96632.19;;;18.51;100.00
55271;BME280;41132;47.162;9.470;2023-07-13T00:32:44;96631.94;;;18.52;100.00
55271;BME280;41132;47.162;9.470;2023-07-13T00:35:10;96623.56;;;18.42;100.00
55271;BME280;41132;47.162;9.470;2023-07-13T00:37:36;96628.88;;;18.42;100.00
55271;BME280;41132;47.162;9.470;2023-07-13T00:40:04;96630.31;;;18.45;100.00
55271;BME280;41132;47.162;9.470;2023-07-13T00:42:30;96617.25;;;18.56;100.00
55271;BME280;41132;47.162;9.470;2023-07-13T01:00:29;96604.75;;;18.37;100.00
55271;BME280;41132;47.162;9.470;2023-07-13T01:26:38;96607.81;;;18.41;100.00
55271;BME280;41132;47.162;9.470;2023-07-13T01:29:04;96596.78;;;18.30;100.00
55271;BME280;41132;47.162;9.470;2023-07-13T01:39:15;96608.00;;;18.39;100.00
55271;BME280;41132;47.162;9.470;2023-07-13T01:41:40;96593.53;;;18.35;100.00
55271;BME280;41132;47.162;9.470;2023-07-13T01:44:06;96596.56;;;18.32;100.00
55271;BME280;41132;47.162;9.470;2023-07-13T01:46:31;96584.69;;;18.28;100.00
55271;BME280;41132;47.162;9.470;2023-07-13T01:48:57;96588.81;;;18.24;100.00
55271;BME280;41132;47.162;9.470;2023-07-13T01:51:22;96574.09;;;18.14;100.00
55271;BME280;41132;47.162;9.470;2023-07-13T01:53:47;96569.78;;;18.20;100.00
55271;BME280;41132;47.162;9.470;2023-07-13T01:56:13;96576.75;;;18.48;100.00
55271;BME280;41132;47.162;9.470;2023-07-13T01:58:38;96571.66;;;18.33;100.00
55271;BME280;41132;47.162;9.470;2023-07-13T02:01:03;96564.69;;;18.39;100.00
55271;BME280;41132;47.162;9.470;2023-07-13T02:03:29;96575.94;;;18.47;100.00
55271;BME280;41132;47.162;9.470;2023-07-13T02:05:54;96569.81;;;18.33;100.00
55271;BME280;41132;47.162;9.470;2023-07-13T02:08:19;96571.66;;;18.33;100.00
55271;BME280;41132;47.162;9.470;2023-07-13T02:13:20;96565.31;;;18.34;100.00
55271;BME280;41132;47.162;9.470;2023-07-13T02:15:45;96568.75;;;18.28;100.00
55271;BME280;41132;47.162;9.470;2023-07-13T02:18:11;96551.00;;;18.15;100.00
55271;BME280;41132;47.162;9.470;2023-07-13T02:20:37;96554.44;;;18.15;100.00
55271;BME280;41132;47.162;9.470;2023-07-13T02:23:03;96560.38;;;18.18;100.00
55271;BME280;41132;47.162;9.470;2023-07-13T02:25:28;96567.94;;;18.14;100.00
55271;BME280;41132;47.162;9.470;2023-07-13T02:27:53;96574.28;;;18.13;100.00
55271;BME280;41132;47.162;9.470;2023-07-13T02:30:19;96566.09;;;18.08;100.00
55271;BME280;41132;47.162;9.470;2023-07-13T02:32:45;96575.25;;;18.05;100.00
55271;BME280;41132;47.162;9.470;2023-07-13T02:35:10;96580.22;;;18.22;100.00
55271;BME280;41132;47.162;9.470;2023-07-13T02:37:35;96597.75;;;18.16;100.00
55271;BME280;41132;47.162;9.470;2023-07-13T02:40:01;96591.44;;;18.17;100.00
55271;BME280;41132;47.162;9.470;2023-07-13T02:42:33;96603.06;;;18.16;100.00
55271;BME280;41132;47.162;9.470;2023-07-13T02:44:58;96593.06;;;18.18;100.00
55271;BME280;41132;47.162;9.470;2023-07-13T02:47:23;96598.97;;;18.13;100.00
55271;BME280;41132;47.162;9.470;2023-07-13T02:49:49;96597.75;;;18.16;100.00
55271;BME280;41132;47.162;9.470;2023-07-13T02:52:14;96590.00;;;18.14;100.00
55271;BME280;41132;47.162;9.470;2023-07-13T02:54:40;96586.31;;;18.15;100.00
55271;BME280;41132;47.162;9.470;2023-07-13T02:57:05;96587.34;;;18.14;100.00
55271;BME280;41132;47.162;9.470;2023-07-13T02:59:31;96600.84;;;18.20;100.00
55271;BME280;41132;47.162;9.470;2023-07-13T03:01:57;96589.78;;;18.16;100.00
55271;BME280;41132;47.162;9.470;2023-07-13T03:04:22;96601.22;;;18.16;100.00
55271;BME280;41132;47.162;9.470;2023-07-13T03:06:48;96597.13;;;18.14;100.00
55271;BME280;41132;47.162;9.470;2023-07-13T03:09:14;96603.53;;;18.26;100.00
55271;BME280;41132;47.162;9.470;2023-07-13T03:11:39;96579.97;;;18.03;100.00
55271;BME280;41132;47.162;9.470;2023-07-13T03:14:05;96593.25;;;18.16;100.00
55271;BME280;41132;47.162;9.470;2023-07-13T03:16:30;96607.56;;;18.15;100.00
55271;BME280;41132;47.162;9.470;2023-07-13T03:18:56;96613.91;;;18.08;100.00
55271;BME280;41132;47.162;9.470;2023-07-13T03:21:21;96601.81;;;18.05;100.00
55271;BME280;41132;47.162;9.470;2023-07-13T03:23:47;96607.34;;;18.04;100.00
55271;BME280;41132;47.162;9.470;2023-07-13T03:26:18;96619.22;;;18.08;100.00
55271;BME280;41132;47.162;9.470;2023-07-13T03:28:44;96625.34;;;18.15;100.00
55271;BME280;41132;47.162;9.470;2023-07-13T03:31:13;96615.94;;;18.06;100.00
55271;BME280;41132;47.162;9.470;2023-07-13T03:33:39;96612.22;;;18.00;100.00
55271;BME280;41132;47.162;9.470;2023-07-13T03:41:16;96618.38;;;18.14;100.00
55271;BME280;41132;47.162;9.470;2023-07-13T03:43:41;96611.63;;;18.05;100.00
55271;BME280;41132;47.162;9.470;2023-07-13T03:46:07;96589.94;;;17.88;100.00
55271;BME280;41132;47.162;9.470;2023-07-13T03:48:33;96623.66;;;18.01;100.00
55271;BME280;41132;47.162;9.470;2023-07-13T03:50:58;96620.19;;;18.00;100.00
55271;BME280;41132;47.162;9.470;2023-07-13T03:53:24;96623.28;;;18.04;100.00
55271;BME280;41132;47.162;9.470;2023-07-13T03:55:49;96630.41;;;18.10;100.00
55271;BME280;41132;47.162;9.470;2023-07-13T03:58:31;96625.13;;;18.16;100.00
55271;BME280;41132;47.162;9.470;2023-07-13T04:00:58;96593.22;;;17.97;100.00
55271;BME280;41132;47.162;9.470;2023-07-13T04:03:25;96612.88;;;18.15;100.00
55271;BME280;41132;47.162;9.470;2023-07-13T04:05:50;96612.84;;;18.02;100.00
55271;BME280;41132;47.162;9.470;2023-07-13T04:10:51;96612.69;;;18.10;100.00
55271;BME280;41132;47.162;9.470;2023-07-13T04:13:16;96602.84;;;18.04;100.00
55271;BME280;41132;47.162;9.470;2023-07-13T04:15:42;96616.94;;;18.11;100.00
55271;BME280;41132;47.162;9.470;2023-07-13T04:18:08;96602.06;;;18.10;100.00
55271;BME280;41132;47.162;9.470;2023-07-13T04:20:34;96598.53;;;17.90;100.00
55271;BME280;41132;47.162;9.470;2023-07-13T04:22:59;96613.03;;;18.01;100.00
55271;BME280;41132;47.162;9.470;2023-07-13T04:25:25;96607.53;;;18.02;100.00
55271;BME280;41132;47.162;9.470;2023-07-13T04:27:50;96603.66;;;18.05;100.00
55271;BME280;41132;47.162;9.470;2023-07-13T04:30:17;96614.50;;;18.16;100.00
55271;BME280;41132;47.162;9.470;2023-07-13T04:32:42;96599.41;;;18.10;100.00
55271;BME280;41132;47.162;9.470;2023-07-13T04:35:08;96603.28;;;18.14;100.00
55271;BME280;41132;47.162;9.470;2023-07-13T04:37:34;96608.97;;;18.05;100.00
55271;BME280;41132;47.162;9.470;2023-07-13T04:40:00;96617.41;;;18.22;100.00
55271;BME280;41132;47.162;9.470;2023-07-13T04:42:26;96613.31;;;18.26;100.00
55271;BME280;41132;47.162;9.470;2023-07-13T04:44:51;96616.41;;;18.36;100.00
55271;BME280;41132;47.162;9.470;2023-07-13T04:47:18;96617.84;;;18.39;100.00
55271;BME280;41132;47.162;9.470;2023-07-13T04:49:44;96592.06;;;18.39;100.00
55271;BME280;41132;47.162;9.470;2023-07-13T04:52:10;96596.56;;;18.39;100.00
55271;BME280;41132;47.162;9.470;2023-07-13T04:54:35;96617.44;;;18.55;100.00
55271;BME280;41132;47.162;9.470;2023-07-13T04:57:02;96613.94;;;18.41;100.00
55271;BME280;41132;47.162;9.470;2023-07-13T04:59:28;96623.78;;;18.54;100.00
55271;BME280;41132;47.162;9.470;2023-07-13T05:01:53;96604.34;;;18.40;100.00
55271;BME280;41132;47.162;9.470;2023-07-13T05:04:19;96615.00;;;18.47;100.00
55271;BME280;41132;47.162;9.470;2023-07-13T05:06:44;96622.34;;;18.38;100.00
55271;BME280;41132;47.162;9.470;2023-07-13T05:09:10;96626.84;;;18.44;100.00
55271;BME280;41132;47.162;9.470;2023-07-13T05:11:35;96636.88;;;18.49;100.00
55271;BME280;41132;47.162;9.470;2023-07-13T05:14:01;96612.91;;;18.29;100.00
55271;BME280;41132;47.162;9.470;2023-07-13T05:16:27;96630.72;;;18.35;100.00
55271;BME280;41132;47.162;9.470;2023-07-13T05:18:53;96635.63;;;18.38;100.00
55271;BME280;41132;47.162;9.470;2023-07-13T05:21:18;96620.69;;;18.30;100.00
55271;BME280;41132;47.162;9.470;2023-07-13T05:23:43;96647.69;;;18.41;100.00
55271;BME280;41132;47.162;9.470;2023-07-13T05:26:09;96649.34;;;18.55;100.00
55271;BME280;41132;47.162;9.470;2023-07-13T05:28:36;96648.09;;;18.44;100.00
55271;BME280;41132;47.162;9.470;2023-07-13T05:33:37;96655.69;;;18.54;100.00
55271;BME280;41132;47.162;9.470;2023-07-13T05:36:02;96651.56;;;18.45;100.00
55271;BME280;41132;47.162;9.470;2023-07-13T05:41:03;96663.63;;;18.41;100.00
55271;BME280;41132;47.162;9.470;2023-07-13T05:43:28;96663.63;;;18.47;100.00
55271;BME280;41132;47.162;9.470;2023-07-13T05:45:55;96660.59;;;18.57;100.00
55271;BME280;41132;47.162;9.470;2023-07-13T05:48:21;96655.66;;;18.47;100.00
55271;BME280;41132;47.162;9.470;2023-07-13T05:50:46;96657.28;;;18.48;100.00
55271;BME280;41132;47.162;9.470;2023-07-13T05:53:12;96668.38;;;18.58;100.00
55271;BME280;41132;47.162;9.470;2023-07-13T05:55:47;96669.38;;;18.64;100.00
55271;BME280;41132;47.162;9.470;2023-07-13T05:58:16;96670.84;;;18.67;100.00
55271;BME280;41132;47.162;9.470;2023-07-13T06:00:42;96664.06;;;18.64;100.00
55271;BME280;41132;47.162;9.470;2023-07-13T06:03:07;96676.97;;;18.67;100.00
55271;BME280;41132;47.162;9.470;2023-07-13T06:05:33;96677.19;;;18.72;100.00
55271;BME280;41132;47.162;9.470;2023-07-13T06:08:00;96677.59;;;18.69;100.00
55271;BME280;41132;47.162;9.470;2023-07-13T06:10:25;96691.09;;;18.74;100.00
55271;BME280;41132;47.162;9.470;2023-07-13T06:12:51;96670.84;;;18.67;100.00
55271;BME280;41132;47.162;9.470;2023-07-13T06:15:16;96675.13;;;18.68;100.00
55271;BME280;41132;47.162;9.470;2023-07-13T06:17:42;96700.28;;;18.72;100.00
55271;BME280;41132;47.162;9.470;2023-07-13T06:20:07;96682.88;;;18.56;100.00
55271;BME280;41132;47.162;9.470;2023-07-13T06:22:33;96709.88;;;18.66;100.00
55271;BME280;41132;47.162;9.470;2023-07-13T06:24:58;96718.94;;;18.78;100.00
55271;BME280;41132;47.162;9.470;2023-07-13T06:27:24;96721.00;;;18.83;100.00
55271;BME280;41132;47.162;9.470;2023-07-13T06:29:49;96726.94;;;18.92;100.00
55271;BME280;41132;47.162;9.470;2023-07-13T06:32:15;96732.84;;;18.81;100.00
55271;BME280;41132;47.162;9.470;2023-07-13T06:34:40;96713.63;;;18.85;100.00
55271;BME280;41132;47.162;9.470;2023-07-13T06:37:06;96740.44;;;18.90;100.00
55271;BME280;41132;47.162;9.470;2023-07-13T06:39:32;96752.94;;;19.03;100.00
55271;BME280;41132;47.162;9.470;2023-07-13T06:41:57;96744.75;;;19.05;100.00
55271;BME280;41132;47.162;9.470;2023-07-13T06:44:23;96745.75;;;18.90;100.00
55271;BME280;41132;47.162;9.470;2023-07-13T06:46:48;96741.06;;;18.92;100.00
55271;BME280;41132;47.162;9.470;2023-07-13T06:49:13;96747.59;;;18.90;100.00
55271;BME280;41132;47.162;9.470;2023-07-13T06:51:41;96739.19;;;18.80;100.00
55271;BME280;41132;47.162;9.470;2023-07-13T06:54:07;96724.59;;;18.75;100.00
55271;BME280;41132;47.162;9.470;2023-07-13T06:56:32;96738.78;;;18.83;100.00
55271;BME280;41132;47.162;9.470;2023-07-13T06:58:57;96742.41;;;18.68;100.00
55271;BME280;41132;47.162;9.470;2023-07-13T07:01:23;96731.97;;;18.60;100.00
55271;BME280;41132;47.162;9.470;2023-07-13T07:03:48;96730.50;;;18.64;100.00
55271;BME280;41132;47.162;9.470;2023-07-13T07:06:17;96737.75;;;18.77;100.00
55271;BME280;41132;47.162;9.470;2023-07-13T07:08:43;96709.84;;;18.60;100.00
55271;BME280;41132;47.162;9.470;2023-07-13T07:11:16;96717.84;;;18.66;100.00
55271;BME280;41132;47.162;9.470;2023-07-13T07:13:42;96719.56;;;18.81;100.00
55271;BME280;41132;47.162;9.470;2023-07-13T07:16:07;96722.22;;;18.87;100.00
55271;BME280;41132;47.162;9.470;2023-07-13T07:18:34;96734.44;;;18.75;100.00
55271;BME280;41132;47.162;9.470;2023-07-13T07:21:00;96713.16;;;18.68;100.00
55271;BME280;41132;47.162;9.470;2023-07-13T07:23:25;96725.25;;;18.77;100.00
55271;BME280;41132;47.162;9.470;2023-07-13T07:25:50;96721.53;;;18.65;100.00
55271;BME280;41132;47.162;9.470;2023-07-13T07:28:17;96742.63;;;18.67;100.00
55271;BME280;41132;47.162;9.470;2023-07-13T07:30:47;96755.09;;;18.73;100.00
55271;BME280;41132;47.162;9.470;2023-07-13T07:33:12;96724.59;;;18.55;100.00
55271;BME280;41132;47.162;9.470;2023-07-13T07:35:38;96756.50;;;18.75;100.00
55271;BME280;41132;47.162;9.470;2023-07-13T07:38:03;96751.25;;;18.82;100.00
55271;BME280;41132;47.162;9.470;2023-07-13T07:40:29;96739.75;;;18.75;100.00
55271;BME280;41132;47.162;9.470;2023-07-13T07:42:55;96746.34;;;18.79;100.00
55271;BME280;41132;47.162;9.470;2023-07-13T07:45:20;96757.97;;;18.78;100.00
55271;BME280;41132;47.162;9.470;2023-07-13T07:47:46;96752.03;;;18.76;100.00
55271;BME280;41132;47.162;9.470;2023-07-13T07:50:11;96752.03;;;18.76;100.00
55271;BME280;41132;47.162;9.470;2023-07-13T07:52:37;96761.09;;;18.88;100.00
55271;BME280;41132;47.162;9.470;2023-07-13T07:55:05;96737.56;;;18.85;100.00
55271;BME280;41132;47.162;9.470;2023-07-13T07:57:30;96728.97;;;18.90;100.00
55271;BME280;41132;47.162;9.470;2023-07-13T07:59:56;96754.34;;;18.99;100.00
55271;BME280;41132;47.162;9.470;2023-07-13T08:02:21;96767.25;;;19.02;100.00
55271;BME280;41132;47.162;9.470;2023-07-13T08:04:47;96749.44;;;19.09;100.00
55271;BME280;41132;47.162;9.470;2023-07-13T08:07:13;96743.31;;;19.22;100.00
55271;BME280;41132;47.162;9.470;2023-07-13T08:09:38;96746.38;;;19.32;100.00
55271;BME280;41132;47.162;9.470;2023-07-13T08:12:04;96745.56;;;19.52;100.00
55271;BME280;41132;47.162;9.470;2023-07-13T08:14:33;96739.63;;;19.63;100.00
55271;BME280;41132;47.162;9.470;2023-07-13T08:16:58;96744.97;;;19.70;100.00
55271;BME280;41132;47.162;9.470;2023-07-13T08:19:24;96711.59;;;19.74;100.00
55271;BME280;41132;47.162;9.470;2023-07-13T08:21:49;96733.38;;;20.09;100.00
55271;BME280;41132;47.162;9.470;2023-07-13T08:24:15;96745.59;;;20.30;100.00
55271;BME280;41132;47.162;9.470;2023-07-13T08:26:40;96744.19;;;20.79;100.00
55271;BME280;41132;47.162;9.470;2023-07-13T08:29:06;96729.34;;;20.90;100.00
55271;BME280;41132;47.162;9.470;2023-07-13T08:31:31;96730.75;;;20.93;100.00
55271;BME280;41132;47.162;9.470;2023-07-13T08:33:57;96728.88;;;21.00;100.00
55271;BME280;41132;47.162;9.470;2023-07-13T08:36:22;96727.31;;;21.17;100.00
55271;BME280;41132;47.162;9.470;2023-07-13T08:38:47;96734.91;;;21.45;100.00
55271;BME280;41132;47.162;9.470;2023-07-13T08:41:15;96731.91;;;21.60;100.00
55271;BME280;41132;47.162;9.470;2023-07-13T08:43:45;96734.41;;;21.99;100.00
55271;BME280;41132;47.162;9.470;2023-07-13T08:48:50;96735.09;;;21.51;100.00
55271;BME280;41132;47.162;9.470;2023-07-13T08:51:33;96738.56;;;21.51;100.00
55271;BME280;41132;47.162;9.470;2023-07-13T08:54:03;96735.66;;;21.53;100.00
55271;BME280;41132;47.162;9.470;2023-07-13T08:56:31;96727.94;;;21.88;100.00
55271;BME280;41132;47.162;9.470;2023-07-13T08:59:14;96739.84;;;22.29;100.00
55271;BME280;41132;47.162;9.470;2023-07-13T09:04:22;96741.75;;;23.31;100.00
55271;BME280;41132;47.162;9.470;2023-07-13T09:12:27;96741.63;;;24.20;100.00
55271;BME280;41132;47.162;9.470;2023-07-13T09:14:57;96738.41;;;24.47;100.00
55271;BME280;41132;47.162;9.470;2023-07-13T09:17:30;96742.72;;;24.88;98.32
55271;BME280;41132;47.162;9.470;2023-07-13T09:20:27;96748.66;;;24.90;91.55
55271;BME280;41132;47.162;9.470;2023-07-13T09:22:55;96763.09;;;25.47;91.97
55271;BME280;41132;47.162;9.470;2023-07-13T09:25:33;96755.50;;;25.94;84.29
55271;BME280;41132;47.162;9.470;2023-07-13T09:28:12;96750.28;;;26.27;79.16
55271;BME280;41132;47.162;9.470;2023-07-13T09:30:46;96750.50;;;26.64;85.86
55271;BME280;41132;47.162;9.470;2023-07-13T09:33:14;96753.91;;;26.37;77.77
55271;BME280;41132;47.162;9.470;2023-07-13T09:35:40;96733.28;;;26.65;70.95
55271;BME280;41132;47.162;9.470;2023-07-13T09:38:15;96734.75;;;26.78;73.37
55271;BME280;41132;47.162;9.470;2023-07-13T09:43:25;96743.66;;;26.78;77.50
55271;BME280;41132;47.162;9.470;2023-07-13T09:45:51;96731.59;;;26.86;76.40
55271;BME280;41132;47.162;9.470;2023-07-13T09:48:18;96734.38;;;26.47;83.72
55271;BME280;41132;47.162;9.470;2023-07-13T09:50:44;96729.31;;;26.29;91.37
55271;BME280;41132;47.162;9.470;2023-07-13T09:53:18;96730.00;;;25.80;81.61
55271;BME280;41132;47.162;9.470;2023-07-13T09:55:46;96728.38;;;25.45;91.08
55271;BME280;41132;47.162;9.470;2023-07-13T10:00:44;96729.72;;;25.59;99.03
55271;BME280;41132;47.162;9.470;2023-07-13T10:03:25;96728.22;;;25.52;89.57
55271;BME280;41132;47.162;9.470;2023-07-13T10:05:51;96730.94;;;25.35;95.97
55271;BME280;41132;47.162;9.470;2023-07-13T10:10:53;96716.38;;;25.02;93.47
55271;BME280;41132;47.162;9.470;2023-07-13T10:13:33;96720.66;;;25.32;94.33
55271;BME280;41132;47.162;9.470;2023-07-13T10:16:02;96737.84;;;25.31;94.12
55271;BME280;41132;47.162;9.470;2023-07-13T10:18:39;96730.31;;;25.16;93.13
55271;BME280;41132;47.162;9.470;2023-07-13T10:21:18;96727.53;;;24.94;89.19
55271;BME280;41132;47.162;9.470;2023-07-13T10:23:52;96732.22;;;24.87;91.78
55271;BME280;41132;47.162;9.470;2023-07-13T10:26:26;96724.59;;;24.95;81.96
55271;BME280;41132;47.162;9.470;2023-07-13T10:28:56;96730.22;;;25.11;93.21
55271;BME280;41132;47.162;9.470;2023-07-13T10:31:23;96733.69;;;24.94;85.52
55271;BME280;41132;47.162;9.470;2023-07-13T10:33:49;96731.44;;;24.57;88.27
55271;BME280;41132;47.162;9.470;2023-07-13T10:36:23;96741.00;;;24.42;96.24
55271;BME280;41132;47.162;9.470;2023-07-13T10:38:54;96745.03;;;24.04;92.99
55271;BME280;41132;47.162;9.470;2023-07-13T10:41:23;96748.75;;;23.67;93.78
55271;BME280;41132;47.162;9.470;2023-07-13T10:43:51;96745.59;;;23.47;100.00
55271;BME280;41132;47.162;9.470;2023-07-13T10:46:21;96747.22;;;23.48;100.00
55271;BME280;41132;47.162;9.470;2023-07-13T10:48:58;96734.53;;;23.31;100.00
55271;BME280;41132;47.162;9.470;2023-07-13T10:51:25;96736.72;;;23.34;100.00
55271;BME280;41132;47.162;9.470;2023-07-13T10:56:35;96748.81;;;23.13;100.00
55271;BME280;41132;47.162;9.470;2023-07-13T10:59:12;96742.69;;;22.94;100.00
55271;BME280;41132;47.162;9.470;2023-07-13T11:01:54;96744.94;;;22.79;100.00
55271;BME280;41132;47.162;9.470;2023-07-13T11:04:21;96732.56;;;22.66;100.00
55271;BME280;41132;47.162;9.470;2023-07-13T11:06:52;96737.91;;;22.66;100.00
55271;BME280;41132;47.162;9.470;2023-07-13T11:09:38;96728.66;;;22.50;100.00
55271;BME280;41132;47.162;9.470;2023-07-13T11:15:01;96750.72;;;22.46;100.00
55271;BME280;41132;47.162;9.470;2023-07-13T11:19:53;96734.88;;;22.33;100.00
55271;BME280;41132;47.162;9.470;2023-07-13T11:22:25;96731.59;;;22.30;100.00
55271;BME280;41132;47.162;9.470;2023-07-13T11:35:46;96735.19;;;22.55;100.00
55271;BME280;41132;47.162;9.470;2023-07-13T11:38:36;96732.59;;;22.48;100.00
55271;BME280;41132;47.162;9.470;2023-07-13T11:41:15;96740.88;;;22.46;100.00
55271;BME280;41132;47.162;9.470;2023-07-13T11:43:41;96740.03;;;22.46;100.00
55271;BME280;41132;47.162;9.470;2023-07-13T11:46:33;96740.50;;;22.24;100.00
55271;BME280;41132;47.162;9.470;2023-07-13T11:48:58;96736.94;;;22.30;100.00
55271;BME280;41132;47.162;9.470;2023-07-13T11:51:32;96746.38;;;22.33;100.00
55271;BME280;41132;47.162;9.470;2023-07-13T11:54:20;96748.88;;;22.46;100.00
55271;BME280;41132;47.162;9.470;2023-07-13T11:56:48;96726.72;;;22.58;100.00
55271;BME280;41132;47.162;9.470;2023-07-13T11:59:14;96749.44;;;22.67;100.00
55271;BME280;41132;47.162;9.470;2023-07-13T12:01:44;96737.72;;;22.80;97.68
55271;BME280;41132;47.162;9.470;2023-07-13T12:04:29;96734.75;;;22.88;100.00
55271;BME280;41132;47.162;9.470;2023-07-13T12:07:11;96737.63;;;22.86;100.00
55271;BME280;41132;47.162;9.470;2023-07-13T12:09:39;96737.25;;;22.71;96.78
55271;BME280;41132;47.162;9.470;2023-07-13T12:12:10;96738.38;;;22.63;100.00
55271;BME280;41132;47.162;9.470;2023-07-13T12:14:36;96733.56;;;22.54;98.70
55271;BME280;41132;47.162;9.470;2023-07-13T12:17:09;96734.59;;;22.52;100.00
55271;BME280;41132;47.162;9.470;2023-07-13T12:19:36;96728.22;;;22.54;100.00
55271;BME280;41132;47.162;9.470;2023-07-13T12:22:02;96720.06;;;22.48;100.00
55271;BME280;41132;47.162;9.470;2023-07-13T12:24:27;96731.72;;;22.54;100.00
55271;BME280;41132;47.162;9.470;2023-07-13T12:26:58;96729.84;;;22.55;100.00
55271;BME280;41132;47.162;9.470;2023-07-13T12:29:25;96725.03;;;22.45;100.00
55271;BME280;41132;47.162;9.470;2023-07-13T12:31:50;96725.25;;;22.43;100.00
55271;BME280;41132;47.162;9.470;2023-07-13T12:34:19;96721.63;;;22.38;100.00
55271;BME280;41132;47.162;9.470;2023-07-13T12:37:01;96738.03;;;22.41;100.00
55271;BME280;41132;47.162;9.470;2023-07-13T12:39:34;96739.38;;;22.32;100.00
55271;BME280;41132;47.162;9.470;2023-07-13T12:42:20;96738.94;;;22.35;100.00
55271;BME280;41132;47.162;9.470;2023-07-13T12:44:49;96744.94;;;22.49;100.00
55271;BME280;41132;47.162;9.470;2023-07-13T12:47:15;96744.13;;;22.48;100.00
55271;BME280;41132;47.162;9.470;2023-07-13T12:50:04;96746.56;;;22.50;100.00
55271;BME280;41132;47.162;9.470;2023-07-13T12:52:33;96733.47;;;22.60;100.00
55271;BME280;41132;47.162;9.470;2023-07-13T12:55:05;96727.28;;;22.78;100.00
55271;BME280;41132;47.162;9.470;2023-07-13T12:57:31;96730.19;;;22.88;100.00
55271;BME280;41132;47.162;9.470;2023-07-13T12:59:56;96725.66;;;22.89;100.00
55271;BME280;41132;47.162;9.470;2023-07-13T13:02:33;96735.97;;;23.04;100.00
55271;BME280;41132;47.162;9.470;2023-07-13T13:05:00;96737.31;;;22.94;98.10
55271;BME280;41132;47.162;9.470;2023-07-13T13:07:26;96735.34;;;22.90;99.72
55271;BME280;41132;47.162;9.470;2023-07-13T13:09:52;96727.63;;;22.82;99.90
55271;BME280;41132;47.162;9.470;2023-07-13T13:12:19;96733.63;;;22.65;98.58
55271;BME280;41132;47.162;9.470;2023-07-13T13:14:45;96732.97;;;22.82;100.00
55271;BME280;41132;47.162;9.470;2023-07-13T13:17:23;96743.66;;;22.82;96.27
55271;BME280;41132;47.162;9.470;2023-07-13T13:19:50;96722.50;;;22.80;99.04
55271;BME280;41132;47.162;9.470;2023-07-13T13:22:18;96728.88;;;22.79;100.00
55271;BME280;41132;47.162;9.470;2023-07-13T13:24:43;96730.94;;;22.65;96.48
55271;BME280;41132;47.162;9.470;2023-07-13T13:27:21;96729.72;;;22.49;98.67
55271;BME280;41132;47.162;9.470;2023-07-13T13:29:49;96728.69;;;22.32;100.00
55271;BME280;41132;47.162;9.470;2023-07-13T13:32:15;96705.16;;;22.22;100.00
55271;BME280;41132;47.162;9.470;2023-07-13T13:34:41;96719.72;;;22.26;100.00
55271;BME280;41132;47.162;9.470;2023-07-13T13:37:21;96713.78;;;22.24;100.00
55271;BME280;41132;47.162;9.470;2023-07-13T13:39:47;96714.63;;;22.18;99.68
55271;BME280;41132;47.162;9.470;2023-07-13T13:42:13;96721.25;;;22.16;100.00
55271;BME280;41132;47.162;9.470;2023-07-13T13:44:39;96726.81;;;22.14;100.00
55271;BME280;41132;47.162;9.470;2023-07-13T13:47:21;96718.16;;;22.19;100.00
55271;BME280;41132;47.162;9.470;2023-07-13T13:49:50;96695.56;;;22.15;100.00
55271;BME280;41132;47.162;9.470;2023-07-13T13:52:16;96715.41;;;22.25;99.80
55271;BME280;41132;47.162;9.470;2023-07-13T13:54:41;96721.59;;;22.26;100.00
55271;BME280;41132;47.162;9.470;2023-07-13T13:57:08;96718.81;;;22.33;100.00
55271;BME280;41132;47.162;9.470;2023-07-13T13:59:33;96725.34;;;22.37;100.00
55271;BME280;41132;47.162;9.470;2023-07-13T14:02:18;96733.34;;;22.37;100.00
55271;BME280;41132;47.162;9.470;2023-07-13T14:04:49;96726.25;;;22.30;100.00
55271;BME280;41132;47.162;9.470;2023-07-13T14:07:15;96730.25;;;22.40;100.00
55271;BME280;41132;47.162;9.470;2023-07-13T14:09:41;96724.53;;;22.36;100.00
55271;BME280;41132;47.162;9.470;2023-07-13T14:12:10;96718.50;;;22.41;100.00
55271;BME280;41132;47.162;9.470;2023-07-13T14:14:37;96720.88;;;22.49;100.00
55271;BME280;41132;47.162;9.470;2023-07-13T14:17:03;96718.03;;;22.62;100.00
55271;BME280;41132;47.162;9.470;2023-07-13T14:19:29;96726.72;;;22.58;100.00
55271;BME280;41132;47.162;9.470;2023-07-13T14:21:55;96723.97;;;22.64;98.66
55271;BME280;41132;47.162;9.470;2023-07-13T14:24:20;96731.25;;;22.57;96.57
55271;BME280;41132;47.162;9.470;2023-07-13T14:26:46;96721.69;;;22.49;96.82
55271;BME280;41132;47.162;9.470;2023-07-13T14:29:18;96713.44;;;22.51;99.36
55271;BME280;41132;47.162;9.470;2023-07-13T14:31:44;96725.81;;;22.64;98.95
55271;BME280;41132;47.162;9.470;2023-07-13T14:34:11;96719.78;;;22.68;100.00
55271;BME280;41132;47.162;9.470;2023-07-13T14:36:40;96722.91;;;22.65;100.00
55271;BME280;41132;47.162;9.470;2023-07-13T14:39:15;96715.63;;;22.84;100.00
55271;BME280;41132;47.162;9.470;2023-07-13T14:41:42;96717.63;;;22.89;100.00
55271;BME280;41132;47.162;9.470;2023-07-13T14:44:16;96725.22;;;22.92;100.00